sensor_id;sensor_type;location;lat;lon;timestamp;temperature;humidity
13673;DHT22;6909;52.202;9.876;2023-07-13T00:01:26;17.00;60.70
13673;DHT22;6909;52.202;9.876;2023-07-13T00:03:53;17.00;99.90
13673;DHT22;6909;52.202;9.876;2023-07-13T00:06:21;17.00;99.90
13673;DHT22;6909;52.202;9.876;2023-07-13T00:08:47;17.00;99.90
13673;DHT22;6909;52.202;9.876;2023-07-13T00:11:16;17.00;1.00
13673;DHT22;6909;52.202;9.876;2023-07-13T00:13:43;17.00;1.00
13673;DHT22;6909;52.202;9.876;2023-07-13T00:16:10;17.00;1.00
13673;DHT22;6909;52.202;9.876;2023-07-13T00:18:39;17.00;99.90
13673;DHT22;6909;52.202;9.876;2023-07-13T00:21:06;17.00;1.00
13673;DHT22;6909;52.202;9.876;2023-07-13T00:23:35;17.00;1.00
13673;DHT22;6909;52.202;9.876;2023-07-13T00:26:03;17.00;1.00
13673;DHT22;6909;52.202;9.876;2023-07-13T00:28:30;17.10;1.00
13673;DHT22;6909;52.202;9.876;2023-07-13T00:30:57;17.10;1.00
13673;DHT22;6909;52.202;9.876;2023-07-13T00:33:23;17.10;1.00
13673;DHT22;6909;52.202;9.876;2023-07-13T00:35:50;17.10;1.00
13673;DHT22;6909;52.202;9.876;2023-07-13T00:38:17;17.20;1.00
13673;DHT22;6909;52.202;9.876;2023-07-13T00:40:45;17.20;1.00
13673;DHT22;6909;52.202;9.876;2023-07-13T00:43:14;17.10;1.00
13673;DHT22;6909;52.202;9.876;2023-07-13T00:48:51;17.10;1.00
13673;DHT22;6909;52.202;9.876;2023-07-13T00:51:25;17.00;1.00
13673;DHT22;6909;52.202;9.876;2023-07-13T00:53:54;17.00;1.00
13673;DHT22;6909;52.202;9.876;2023-07-13T00:56:23;17.00;1.00
13673;DHT22;6909;52.202;9.876;2023-07-13T00:58:50;17.00;1.00
13673;DHT22;6909;52.202;9.876;2023-07-13T01:01:17;16.90;1.00
13673;DHT22;6909;52.202;9.876;2023-07-13T01:03:44;16.90;1.00
13673;DHT22;6909;52.202;9.876;2023-07-13T01:06:12;16.90;1.00
13673;DHT22;6909;52.202;9.876;2023-07-13T01:08:39;16.80;1.00
13673;DHT22;6909;52.202;9.876;2023-07-13T01:11:06;16.70;99.90
13673;DHT22;6909;52.202;9.876;2023-07-13T01:13:34;16.60;99.90
13673;DHT22;6909;52.202;9.876;2023-07-13T01:16:05;16.60;99.90
13673;DHT22;6909;52.202;9.876;2023-07-13T01:18:38;16.60;99.90
13673;DHT22;6909;52.202;9.876;2023-07-13T01:21:06;16.40;99.90
13673;DHT22;6909;52.202;9.876;2023-07-13T01:23:33;16.30;99.90
13673;DHT22;6909;52.202;9.876;2023-07-13T01:25:59;16.20;99.90
13673;DHT22;6909;52.202;9.876;2023-07-13T01:28:27;16.20;99.90
13673;DHT22;6909;52.202;9.876;2023-07-13T01:30:55;16.10;99.90
13673;DHT22;6909;52.202;9.876;2023-07-13T01:33:22;16.00;1.00
13673;DHT22;6909;52.202;9.876;2023-07-13T01:35:50;16.00;1.00
13673;DHT22;6909;52.202;9.876;2023-07-13T01:38:20;15.90;1.00
13673;DHT22;6909;52.202;9.876;2023-07-13T01:40:48;15.80;99.90
13673;DHT22;6909;52.202;9.876;2023-07-13T01:43:15;15.70;99.90
13673;DHT22;6909;52.202;9.876;2023-07-13T01:45:42;15.70;99.90
13673;DHT22;6909;52.202;9.876;2023-07-13T01:48:09;15.60;99.90
13673;DHT22;6909;52.202;9.876;2023-07-13T01:50:36;15.60;99.90
13673;DHT22;6909;52.202;9.876;2023-07-13T01:53:03;15.50;99.90
13673;DHT22;6909;52.202;9.876;2023-07-13T01:55:31;15.50;99.90
13673;DHT22;6909;52.202;9.876;2023-07-13T01:57:58;15.30;96.50
13673;DHT22;6909;52.202;9.876;2023-07-13T02:00:24;15.20;99.90
13673;DHT22;6909;52.202;9.876;2023-07-13T02:02:51;15.10;99.90
13673;DHT22;6909;52.202;9.876;2023-07-13T02:05:18;15.10;1.00
13673;DHT22;6909;52.202;9.876;2023-07-13T02:07:45;15.00;1.00
13673;DHT22;6909;52.202;9.876;2023-07-13T02:10:12;15.00;1.00
13673;DHT22;6909;52.202;9.876;2023-07-13T02:12:41;15.00;1.00
13673;DHT22;6909;52.202;9.876;2023-07-13T02:15:08;15.00;1.00
13673;DHT22;6909;52.202;9.876;2023-07-13T02:17:36;15.00;1.00
13673;DHT22;6909;52.202;9.876;2023-07-13T02:20:04;15.00;1.00
13673;DHT22;6909;52.202;9.876;2023-07-13T02:22:31;15.10;99.90
13673;DHT22;6909;52.202;9.876;2023-07-13T02:24:58;15.10;99.90
13673;DHT22;6909;52.202;9.876;2023-07-13T02:27:25;15.10;99.90
13673;DHT22;6909;52.202;9.876;2023-07-13T02:29:53;15.20;1.00
13673;DHT22;6909;52.202;9.876;2023-07-13T02:32:20;15.20;1.00
13673;DHT22;6909;52.202;9.876;2023-07-13T02:34:46;15.30;1.00
13673;DHT22;6909;52.202;9.876;2023-07-13T02:37:13;15.30;1.00
13673;DHT22;6909;52.202;9.876;2023-07-13T02:39:40;15.30;1.00
13673;DHT22;6909;52.202;9.876;2023-07-13T02:42:06;15.40;1.00
13673;DHT22;6909;52.202;9.876;2023-07-13T02:44:33;15.40;1.00
13673;DHT22;6909;52.202;9.876;2023-07-13T02:47:01;15.50;1.00
13673;DHT22;6909;52.202;9.876;2023-07-13T02:49:28;15.40;1.00
13673;DHT22;6909;52.202;9.876;2023-07-13T02:51:54;15.40;1.00
13673;DHT22;6909;52.202;9.876;2023-07-13T02:54:21;15.20;1.00
13673;DHT22;6909;52.202;9.876;2023-07-13T02:56:47;15.20;1.00
13673;DHT22;6909;52.202;9.876;2023-07-13T02:59:14;15.10;1.00
13673;DHT22;6909;52.202;9.876;2023-07-13T03:01:41;15.10;26.70
13673;DHT22;6909;52.202;9.876;2023-07-13T03:04:09;14.90;99.90
13673;DHT22;6909;52.202;9.876;2023-07-13T03:06:35;14.90;1.00
13673;DHT22;6909;52.202;9.876;2023-07-13T03:09:02;14.80;1.00
13673;DHT22;6909;52.202;9.876;2023-07-13T03:11:29;14.80;1.00
13673;DHT22;6909;52.202;9.876;2023-07-13T03:13:57;14.80;1.00
13673;DHT22;6909;52.202;9.876;2023-07-13T03:16:24;14.70;1.00
13673;DHT22;6909;52.202;9.876;2023-07-13T03:18:50;14.70;1.00
13673;DHT22;6909;52.202;9.876;2023-07-13T03:21:18;14.60;1.00
13673;DHT22;6909;52.202;9.876;2023-07-13T03:23:46;14.60;1.00
13673;DHT22;6909;52.202;9.876;2023-07-13T03:26:14;14.70;1.00
13673;DHT22;6909;52.202;9.876;2023-07-13T03:28:42;14.60;1.00
13673;DHT22;6909;52.202;9.876;2023-07-13T03:31:11;14.50;1.00
13673;DHT22;6909;52.202;9.876;2023-07-13T03:33:38;14.50;1.00
13673;DHT22;6909;52.202;9.876;2023-07-13T03:36:06;14.50;1.00
13673;DHT22;6909;52.202;9.876;2023-07-13T03:38:35;14.50;1.00
13673;DHT22;6909;52.202;9.876;2023-07-13T03:41:01;14.50;1.00
13673;DHT22;6909;52.202;9.876;2023-07-13T03:43:27;14.60;1.00
13673;DHT22;6909;52.202;9.876;2023-07-13T03:45:54;14.60;1.00
13673;DHT22;6909;52.202;9.876;2023-07-13T03:48:21;14.60;1.00
13673;DHT22;6909;52.202;9.876;2023-07-13T03:50:48;14.60;1.00
13673;DHT22;6909;52.202;9.876;2023-07-13T03:53:15;14.70;99.90
13673;DHT22;6909;52.202;9.876;2023-07-13T03:55:43;14.60;1.00
13673;DHT22;6909;52.202;9.876;2023-07-13T03:58:30;14.80;1.00
13673;DHT22;6909;52.202;9.876;2023-07-13T04:00:58;14.90;99.90
13673;DHT22;6909;52.202;9.876;2023-07-13T04:03:25;15.10;99.90
13673;DHT22;6909;52.202;9.876;2023-07-13T04:05:53;15.30;99.90
13673;DHT22;6909;52.202;9.876;2023-07-13T04:08:20;15.40;1.00
13673;DHT22;6909;52.202;9.876;2023-07-13T04:10:48;15.50;1.00
13673;DHT22;6909;52.202;9.876;2023-07-13T04:13:14;15.70;1.00
13673;DHT22;6909;52.202;9.876;2023-07-13T04:15:41;15.70;1.00
13673;DHT22;6909;52.202;9.876;2023-07-13T04:18:08;15.60;99.90
13673;DHT22;6909;52.202;9.876;2023-07-13T04:20:35;15.70;99.90
13673;DHT22;6909;52.202;9.876;2023-07-13T04:23:02;15.80;99.90
13673;DHT22;6909;52.202;9.876;2023-07-13T04:25:28;15.90;99.90
13673;DHT22;6909;52.202;9.876;2023-07-13T04:27:56;15.80;99.90
13673;DHT22;6909;52.202;9.876;2023-07-13T04:30:23;15.90;99.90
13673;DHT22;6909;52.202;9.876;2023-07-13T04:32:51;16.00;99.90
13673;DHT22;6909;52.202;9.876;2023-07-13T04:35:18;16.10;99.90
13673;DHT22;6909;52.202;9.876;2023-07-13T04:37:46;16.20;99.90
13673;DHT22;6909;52.202;9.876;2023-07-13T04:40:12;16.90;1.00
13673;DHT22;6909;52.202;9.876;2023-07-13T04:42:39;17.70;99.90
13673;DHT22;6909;52.202;9.876;2023-07-13T04:45:08;18.40;99.90
13673;DHT22;6909;52.202;9.876;2023-07-13T04:47:34;19.80;1.00
13673;DHT22;6909;52.202;9.876;2023-07-13T04:50:01;21.30;19.10
13673;DHT22;6909;52.202;9.876;2023-07-13T04:52:28;22.50;1.00
13673;DHT22;6909;52.202;9.876;2023-07-13T04:54:55;23.20;1.00
13673;DHT22;6909;52.202;9.876;2023-07-13T04:57:21;23.60;99.90
13673;DHT22;6909;52.202;9.876;2023-07-13T04:59:48;24.50;99.90
13673;DHT22;6909;52.202;9.876;2023-07-13T05:02:16;25.50;99.90
13673;DHT22;6909;52.202;9.876;2023-07-13T05:04:42;25.80;99.80
13673;DHT22;6909;52.202;9.876;2023-07-13T05:07:12;25.60;1.00
13673;DHT22;6909;52.202;9.876;2023-07-13T05:09:39;26.40;1.00
13673;DHT22;6909;52.202;9.876;2023-07-13T05:12:07;27.00;1.00
13673;DHT22;6909;52.202;9.876;2023-07-13T05:14:33;26.90;1.00
13673;DHT22;6909;52.202;9.876;2023-07-13T05:17:00;26.10;1.00
13673;DHT22;6909;52.202;9.876;2023-07-13T05:19:29;26.10;1.00
13673;DHT22;6909;52.202;9.876;2023-07-13T05:21:56;26.50;1.00
13673;DHT22;6909;52.202;9.876;2023-07-13T05:24:23;26.70;1.00
13673;DHT22;6909;52.202;9.876;2023-07-13T05:26:50;26.60;1.00
13673;DHT22;6909;52.202;9.876;2023-07-13T05:29:17;26.10;1.00
13673;DHT22;6909;52.202;9.876;2023-07-13T05:31:43;25.60;1.00
13673;DHT22;6909;52.202;9.876;2023-07-13T05:34:10;24.70;1.00
13673;DHT22;6909;52.202;9.876;2023-07-13T05:36:38;23.60;1.00
13673;DHT22;6909;52.202;9.876;2023-07-13T05:39:05;22.80;1.00
13673;DHT22;6909;52.202;9.876;2023-07-13T05:41:31;21.70;1.00
13673;DHT22;6909;52.202;9.876;2023-07-13T05:43:58;21.20;1.00
13673;DHT22;6909;52.202;9.876;2023-07-13T05:46:25;20.80;1.00
13673;DHT22;6909;52.202;9.876;2023-07-13T05:48:52;21.00;1.00
13673;DHT22;6909;52.202;9.876;2023-07-13T05:51:18;22.30;1.00
13673;DHT22;6909;52.202;9.876;2023-07-13T05:53:46;23.50;1.00
13673;DHT22;6909;52.202;9.876;2023-07-13T05:56:13;24.30;1.00
13673;DHT22;6909;52.202;9.876;2023-07-13T05:58:40;24.30;1.00
13673;DHT22;6909;52.202;9.876;2023-07-13T06:01:11;25.30;1.00
13673;DHT22;6909;52.202;9.876;2023-07-13T06:03:38;26.20;1.00
13673;DHT22;6909;52.202;9.876;2023-07-13T06:06:05;26.70;1.00
13673;DHT22;6909;52.202;9.876;2023-07-13T06:08:31;27.40;1.00
13673;DHT22;6909;52.202;9.876;2023-07-13T06:11:07;28.10;1.00
13673;DHT22;6909;52.202;9.876;2023-07-13T06:13:34;29.30;1.00
13673;DHT22;6909;52.202;9.876;2023-07-13T06:16:01;29.50;1.00
13673;DHT22;6909;52.202;9.876;2023-07-13T06:18:29;29.70;1.00
13673;DHT22;6909;52.202;9.876;2023-07-13T06:20:56;29.90;1.00
13673;DHT22;6909;52.202;9.876;2023-07-13T06:23:23;30.00;1.00
13673;DHT22;6909;52.202;9.876;2023-07-13T06:25:50;30.00;1.00
13673;DHT22;6909;52.202;9.876;2023-07-13T06:28:19;28.80;1.00
13673;DHT22;6909;52.202;9.876;2023-07-13T06:30:45;29.30;1.00
13673;DHT22;6909;52.202;9.876;2023-07-13T06:33:12;27.80;1.00
13673;DHT22;6909;52.202;9.876;2023-07-13T06:35:38;27.40;1.00
13673;DHT22;6909;52.202;9.876;2023-07-13T06:38:05;27.10;1.00
13673;DHT22;6909;52.202;9.876;2023-07-13T06:40:32;26.30;1.00
13673;DHT22;6909;52.202;9.876;2023-07-13T06:42:58;25.40;1.00
13673;DHT22;6909;52.202;9.876;2023-07-13T06:45:26;24.80;1.00
13673;DHT22;6909;52.202;9.876;2023-07-13T06:47:53;24.10;1.00
13673;DHT22;6909;52.202;9.876;2023-07-13T06:50:20;24.20;1.00
13673;DHT22;6909;52.202;9.876;2023-07-13T06:52:47;24.00;1.00
13673;DHT22;6909;52.202;9.876;2023-07-13T06:55:14;23.00;1.00
13673;DHT22;6909;52.202;9.876;2023-07-13T06:57:41;22.70;1.00
13673;DHT22;6909;52.202;9.876;2023-07-13T07:00:08;22.20;1.00
13673;DHT22;6909;52.202;9.876;2023-07-13T07:02:36;21.60;1.00
13673;DHT22;6909;52.202;9.876;2023-07-13T07:05:05;21.20;1.00
13673;DHT22;6909;52.202;9.876;2023-07-13T07:07:32;21.30;1.00
13673;DHT22;6909;52.202;9.876;2023-07-13T07:09:59;21.00;1.00
13673;DHT22;6909;52.202;9.876;2023-07-13T07:12:25;20.90;1.00
13673;DHT22;6909;52.202;9.876;2023-07-13T07:14:52;20.80;1.00
13673;DHT22;6909;52.202;9.876;2023-07-13T07:17:18;21.00;1.00
13673;DHT22;6909;52.202;9.876;2023-07-13T07:19:47;21.00;1.00
13673;DHT22;6909;52.202;9.876;2023-07-13T07:22:14;20.70;1.00
13673;DHT22;6909;52.202;9.876;2023-07-13T07:24:40;20.80;1.00
13673;DHT22;6909;52.202;9.876;2023-07-13T07:27:07;20.70;1.00
13673;DHT22;6909;52.202;9.876;2023-07-13T07:29:34;20.90;1.00
13673;DHT22;6909;52.202;9.876;2023-07-13T07:32:00;21.00;1.00
13673;DHT22;6909;52.202;9.876;2023-07-13T07:34:27;21.20;1.00
13673;DHT22;6909;52.202;9.876;2023-07-13T07:36:58;21.30;1.00
13673;DHT22;6909;52.202;9.876;2023-07-13T07:39:25;21.40;1.00
13673;DHT22;6909;52.202;9.876;2023-07-13T07:41:52;22.30;1.00
13673;DHT22;6909;52.202;9.876;2023-07-13T07:44:19;22.40;1.00
13673;DHT22;6909;52.202;9.876;2023-07-13T07:46:45;22.20;1.00
13673;DHT22;6909;52.202;9.876;2023-07-13T07:49:12;23.40;1.00
13673;DHT22;6909;52.202;9.876;2023-07-13T07:51:39;23.80;1.00
13673;DHT22;6909;52.202;9.876;2023-07-13T07:54:07;24.40;1.00
13673;DHT22;6909;52.202;9.876;2023-07-13T07:56:33;24.40;1.00
13673;DHT22;6909;52.202;9.876;2023-07-13T07:59:00;24.50;1.00
13673;DHT22;6909;52.202;9.876;2023-07-13T08:01:26;23.40;1.00
13673;DHT22;6909;52.202;9.876;2023-07-13T08:03:53;23.40;1.00
13673;DHT22;6909;52.202;9.876;2023-07-13T08:06:20;24.00;1.00
13673;DHT22;6909;52.202;9.876;2023-07-13T08:08:47;23.60;1.00
13673;DHT22;6909;52.202;9.876;2023-07-13T08:11:16;23.40;1.00
13673;DHT22;6909;52.202;9.876;2023-07-13T08:13:43;23.20;1.00
13673;DHT22;6909;52.202;9.876;2023-07-13T08:16:10;23.40;1.00
13673;DHT22;6909;52.202;9.876;2023-07-13T08:18:37;23.10;1.00
13673;DHT22;6909;52.202;9.876;2023-07-13T08:21:04;23.80;1.00
13673;DHT22;6909;52.202;9.876;2023-07-13T08:23:31;24.10;1.00
13673;DHT22;6909;52.202;9.876;2023-07-13T08:25:58;24.30;1.00
13673;DHT22;6909;52.202;9.876;2023-07-13T08:28:28;24.70;1.00
13673;DHT22;6909;52.202;9.876;2023-07-13T08:30:55;25.20;1.00
13673;DHT22;6909;52.202;9.876;2023-07-13T08:33:26;25.10;1.00
13673;DHT22;6909;52.202;9.876;2023-07-13T08:35:52;25.50;1.00
13673;DHT22;6909;52.202;9.876;2023-07-13T08:38:19;25.50;1.00
13673;DHT22;6909;52.202;9.876;2023-07-13T08:40:50;25.40;1.00
13673;DHT22;6909;52.202;9.876;2023-07-13T08:43:23;24.50;1.00
13673;DHT22;6909;52.202;9.876;2023-07-13T08:45:56;24.90;1.00
13673;DHT22;6909;52.202;9.876;2023-07-13T08:48:27;25.50;1.00
13673;DHT22;6909;52.202;9.876;2023-07-13T08:50:57;25.90;1.00
13673;DHT22;6909;52.202;9.876;2023-07-13T08:53:36;26.00;1.00
13673;DHT22;6909;52.202;9.876;2023-07-13T08:56:09;26.60;1.00
13673;DHT22;6909;52.202;9.876;2023-07-13T08:58:38;25.70;1.00
13673;DHT22;6909;52.202;9.876;2023-07-13T09:01:14;25.30;1.00
13673;DHT22;6909;52.202;9.876;2023-07-13T09:03:49;25.60;1.00
13673;DHT22;6909;52.202;9.876;2023-07-13T09:06:20;25.20;1.00
13673;DHT22;6909;52.202;9.876;2023-07-13T09:08:55;24.70;1.00
13673;DHT22;6909;52.202;9.876;2023-07-13T09:11:35;24.40;1.00
13673;DHT22;6909;52.202;9.876;2023-07-13T09:14:10;24.00;1.00
13673;DHT22;6909;52.202;9.876;2023-07-13T09:16:43;24.10;1.00
13673;DHT22;6909;52.202;9.876;2023-07-13T09:19:15;23.40;1.00
13673;DHT22;6909;52.202;9.876;2023-07-13T09:21:44;22.80;1.00
13673;DHT22;6909;52.202;9.876;2023-07-13T09:24:29;22.50;1.00
13673;DHT22;6909;52.202;9.876;2023-07-13T09:26:57;22.70;1.00
13673;DHT22;6909;52.202;9.876;2023-07-13T09:29:28;22.80;1.00
13673;DHT22;6909;52.202;9.876;2023-07-13T09:32:00;22.80;1.00
13673;DHT22;6909;52.202;9.876;2023-07-13T09:34:28;22.50;1.00
13673;DHT22;6909;52.202;9.876;2023-07-13T09:36:56;22.50;1.00
13673;DHT22;6909;52.202;9.876;2023-07-13T09:39:25;22.70;1.00
13673;DHT22;6909;52.202;9.876;2023-07-13T09:41:55;22.80;1.00
13673;DHT22;6909;52.202;9.876;2023-07-13T09:44:29;22.60;1.00
13673;DHT22;6909;52.202;9.876;2023-07-13T09:46:58;22.30;1.00
13673;DHT22;6909;52.202;9.876;2023-07-13T09:49:25;22.00;1.00
13673;DHT22;6909;52.202;9.876;2023-07-13T09:51:58;22.30;1.00
13673;DHT22;6909;52.202;9.876;2023-07-13T09:54:26;22.60;1.00
13673;DHT22;6909;52.202;9.876;2023-07-13T09:56:56;23.20;1.00
13673;DHT22;6909;52.202;9.876;2023-07-13T09:59:27;23.40;1.00
13673;DHT22;6909;52.202;9.876;2023-07-13T10:01:55;23.30;1.00
13673;DHT22;6909;52.202;9.876;2023-07-13T10:04:28;23.30;1.00
13673;DHT22;6909;52.202;9.876;2023-07-13T10:07:05;23.40;1.00
13673;DHT22;6909;52.202;9.876;2023-07-13T10:09:32;23.40;1.00
13673;DHT22;6909;52.202;9.876;2023-07-13T10:11:59;23.50;1.00
13673;DHT22;6909;52.202;9.876;2023-07-13T10:14:25;23.60;1.00
13673;DHT22;6909;52.202;9.876;2023-07-13T10:16:58;23.70;1.00
13673;DHT22;6909;52.202;9.876;2023-07-13T10:19:31;24.00;1.00
13673;DHT22;6909;52.202;9.876;2023-07-13T10:22:00;24.10;1.00
13673;DHT22;6909;52.202;9.876;2023-07-13T10:24:31;23.80;1.00
13673;DHT22;6909;52.202;9.876;2023-07-13T10:27:03;23.60;1.00
13673;DHT22;6909;52.202;9.876;2023-07-13T10:29:35;23.70;1.00
13673;DHT22;6909;52.202;9.876;2023-07-13T10:32:09;24.00;1.00
13673;DHT22;6909;52.202;9.876;2023-07-13T10:34:38;23.50;1.00
13673;DHT22;6909;52.202;9.876;2023-07-13T10:37:05;23.60;1.00
13673;DHT22;6909;52.202;9.876;2023-07-13T10:39:35;23.90;1.00
13673;DHT22;6909;52.202;9.876;2023-07-13T10:42:04;23.90;1.00
13673;DHT22;6909;52.202;9.876;2023-07-13T10:44:33;24.20;1.00
13673;DHT22;6909;52.202;9.876;2023-07-13T10:47:02;24.30;1.00
13673;DHT22;6909;52.202;9.876;2023-07-13T10:49:32;23.80;1.00
13673;DHT22;6909;52.202;9.876;2023-07-13T10:52:02;23.10;1.00
13673;DHT22;6909;52.202;9.876;2023-07-13T10:54:31;22.70;1.00
13673;DHT22;6909;52.202;9.876;2023-07-13T10:57:14;22.60;1.00
13673;DHT22;6909;52.202;9.876;2023-07-13T10:59:43;22.90;1.00
13673;DHT22;6909;52.202;9.876;2023-07-13T11:02:23;22.70;1.00
13673;DHT22;6909;52.202;9.876;2023-07-13T11:04:53;22.60;1.00
13673;DHT22;6909;52.202;9.876;2023-07-13T11:07:24;22.50;1.00
13673;DHT22;6909;52.202;9.876;2023-07-13T11:09:53;22.90;1.00
13673;DHT22;6909;52.202;9.876;2023-07-13T11:12:51;23.50;1.00
13673;DHT22;6909;52.202;9.876;2023-07-13T11:15:31;23.70;1.00
13673;DHT22;6909;52.202;9.876;2023-07-13T11:18:03;24.50;1.00
13673;DHT22;6909;52.202;9.876;2023-07-13T11:20:41;25.10;1.00
13673;DHT22;6909;52.202;9.876;2023-07-13T11:23:20;25.50;1.00
13673;DHT22;6909;52.202;9.876;2023-07-13T11:25:52;24.80;1.00
13673;DHT22;6909;52.202;9.876;2023-07-13T11:28:23;24.50;1.00
13673;DHT22;6909;52.202;9.876;2023-07-13T11:34:00;24.20;1.00
13673;DHT22;6909;52.202;9.876;2023-07-13T11:36:39;24.40;1.00
13673;DHT22;6909;52.202;9.876;2023-07-13T11:39:16;24.20;1.00
13673;DHT22;6909;52.202;9.876;2023-07-13T11:41:49;24.00;1.00
13673;DHT22;6909;52.202;9.876;2023-07-13T11:44:19;24.30;1.00
13673;DHT22;6909;52.202;9.876;2023-07-13T11:46:48;24.50;1.00
13673;DHT22;6909;52.202;9.876;2023-07-13T11:49:17;24.70;1.00
13673;DHT22;6909;52.202;9.876;2023-07-13T11:51:44;24.80;1.00
13673;DHT22;6909;52.202;9.876;2023-07-13T11:54:23;24.20;1.00
13673;DHT22;6909;52.202;9.876;2023-07-13T11:56:50;23.70;1.00
13673;DHT22;6909;52.202;9.876;2023-07-13T11:59:17;23.50;1.00
13673;DHT22;6909;52.202;9.876;2023-07-13T12:01:47;23.50;1.00
13673;DHT22;6909;52.202;9.876;2023-07-13T12:04:23;23.50;1.00
13673;DHT22;6909;52.202;9.876;2023-07-13T12:06:58;23.20;1.00
13673;DHT22;6909;52.202;9.876;2023-07-13T12:09:31;23.20;1.00
13673;DHT22;6909;52.202;9.876;2023-07-13T12:12:03;23.10;1.00
13673;DHT22;6909;52.202;9.876;2023-07-13T12:14:33;23.00;1.00
13673;DHT22;6909;52.202;9.876;2023-07-13T12:17:00;23.30;1.00
13673;DHT22;6909;52.202;9.876;2023-07-13T12:19:28;23.40;1.00
13673;DHT22;6909;52.202;9.876;2023-07-13T12:21:56;23.90;1.00
13673;DHT22;6909;52.202;9.876;2023-07-13T12:24:24;23.90;1.00
13673;DHT22;6909;52.202;9.876;2023-07-13T12:26:55;23.90;1.00
13673;DHT22;6909;52.202;9.876;2023-07-13T12:29:25;24.00;1.00
13673;DHT22;6909;52.202;9.876;2023-07-13T12:31:51;24.00;1.00
13673;DHT22;6909;52.202;9.876;2023-07-13T12:34:20;23.90;1.00
13673;DHT22;6909;52.202;9.876;2023-07-13T12:36:49;24.10;1.00
13673;DHT22;6909;52.202;9.876;2023-07-13T12:39:19;24.20;1.00
13673;DHT22;6909;52.202;9.876;2023-07-13T12:41:47;24.30;1.00
13673;DHT22;6909;52.202;9.876;2023-07-13T12:44:17;24.50;1.00
13673;DHT22;6909;52.202;9.876;2023-07-13T12:46:53;24.70;1.00
13673;DHT22;6909;52.202;9.876;2023-07-13T12:49:26;24.40;1.00
13673;DHT22;6909;52.202;9.876;2023-07-13T12:51:58;24.50;1.00
13673;DHT22;6909;52.202;9.876;2023-07-13T12:54:26;24.70;1.00
13673;DHT22;6909;52.202;9.876;2023-07-13T12:56:54;24.70;1.00
13673;DHT22;6909;52.202;9.876;2023-07-13T12:59:25;24.50;1.00
13673;DHT22;6909;52.202;9.876;2023-07-13T13:01:54;24.70;1.00
13673;DHT22;6909;52.202;9.876;2023-07-13T13:04:21;24.60;1.00
13673;DHT22;6909;52.202;9.876;2023-07-13T13:06:49;24.50;1.00
13673;DHT22;6909;52.202;9.876;2023-07-13T13:09:17;24.40;1.00
13673;DHT22;6909;52.202;9.876;2023-07-13T13:11:45;24.50;1.00
13673;DHT22;6909;52.202;9.876;2023-07-13T13:14:12;24.80;1.00
13673;DHT22;6909;52.202;9.876;2023-07-13T13:16:46;24.50;1.00
13673;DHT22;6909;52.202;9.876;2023-07-13T13:19:16;24.00;1.00
13673;DHT22;6909;52.202;9.876;2023-07-13T13:21:45;24.00;1.00
13673;DHT22;6909;52.202;9.876;2023-07-13T13:24:12;23.70;1.00
13673;DHT22;6909;52.202;9.876;2023-07-13T13:26:40;23.60;1.00
13673;DHT22;6909;52.202;9.876;2023-07-13T13:29:15;23.60;1.00
13673;DHT22;6909;52.202;9.876;2023-07-13T13:31:43;23.60;1.00
13673;DHT22;6909;52.202;9.876;2023-07-13T13:34:11;23.70;1.00
13673;DHT22;6909;52.202;9.876;2023-07-13T13:36:39;23.90;1.00
13673;DHT22;6909;52.202;9.876;2023-07-13T13:39:19;24.10;1.00
13673;DHT22;6909;52.202;9.876;2023-07-13T13:41:46;24.20;1.00
13673;DHT22;6909;52.202;9.876;2023-07-13T13:44:15;23.90;1.00
13673;DHT22;6909;52.202;9.876;2023-07-13T13:46:45;23.50;1.00
13673;DHT22;6909;52.202;9.876;2023-07-13T13:49:14;23.20;1.00
13673;DHT22;6909;52.202;9.876;2023-07-13T13:51:42;23.20;1.00
13673;DHT22;6909;52.202;9.876;2023-07-13T13:54:11;23.00;1.00
13673;DHT22;6909;52.202;9.876;2023-07-13T13:56:40;23.20;1.00
13673;DHT22;6909;52.202;9.876;2023-07-13T13:59:07;23.00;1.00
13673;DHT22;6909;52.202;9.876;2023-07-13T14:01:34;22.70;1.00
13673;DHT22;6909;52.202;9.876;2023-07-13T14:04:03;22.70;1.00
13673;DHT22;6909;52.202;9.876;2023-07-13T14:06:31;22.60;1.00
13673;DHT22;6909;52.202;9.876;2023-07-13T14:08:57;23.10;1.00
13673;DHT22;6909;52.202;9.876;2023-07-13T14:11:24;23.30;1.00
13673;DHT22;6909;52.202;9.876;2023-07-13T14:13:55;23.10;1.00
13673;DHT22;6909;52.202;9.876;2023-07-13T14:16:26;22.90;1.00
13673;DHT22;6909;52.202;9.876;2023-07-13T14:18:55;22.40;1.00
13673;DHT22;6909;52.202;9.876;2023-07-13T14:21:28;22.10;1.00
13673;DHT22;6909;52.202;9.876;2023-07-13T14:23:55;21.50;1.00
13673;DHT22;6909;52.202;9.876;2023-07-13T14:26:23;21.20;1.00
13673;DHT22;6909;52.202;9.876;2023-07-13T14:28:53;21.00;1.00
13673;DHT22;6909;52.202;9.876;2023-07-13T14:31:21;20.90;1.00
13673;DHT22;6909;52.202;9.876;2023-07-13T14:33:48;20.70;1.00
13673;DHT22;6909;52.202;9.876;2023-07-13T14:36:26;20.60;99.90
13673;DHT22;6909;52.202;9.876;2023-07-13T14:38:54;20.00;1.00
13673;DHT22;6909;52.202;9.876;2023-07-13T14:41:21;19.60;4.60
13673;DHT22;6909;52.202;9.876;2023-07-13T14:43:48;19.30;99.90
13673;DHT22;6909;52.202;9.876;2023-07-13T14:46:27;19.20;99.90
13673;DHT22;6909;52.202;9.876;2023-07-13T14:49:00;19.00;1.00
13673;DHT22;6909;52.202;9.876;2023-07-13T14:51:29;18.70;1.00
13673;DHT22;6909;52.202;9.876;2023-07-13T14:53:55;18.50;99.90
13673;DHT22;6909;52.202;9.876;2023-07-13T14:56:22;18.30;1.00
13673;DHT22;6909;52.202;9.876;2023-07-13T14:58:49;18.10;1.00
13673;DHT22;6909;52.202;9.876;2023-07-13T15:01:18;18.00;36.00
13673;DHT22;6909;52.202;9.876;2023-07-13T15:03:48;18.00;1.00
13673;DHT22;6909;52.202;9.876;2023-07-13T15:06:16;17.80;1.00
13673;DHT22;6909;52.202;9.876;2023-07-13T15:08:46;17.80;1.00
13673;DHT22;6909;52.202;9.876;2023-07-13T15:11:14;17.50;99.90
13673;DHT22;6909;52.202;9.876;2023-07-13T15:13:41;17.50;99.90
13673;DHT22;6909;52.202;9.876;2023-07-13T15:16:15;17.50;1.00
13673;DHT22;6909;52.202;9.876;2023-07-13T15:18:42;17.70;1.00
13673;DHT22;6909;52.202;9.876;2023-07-13T15:21:11;17.90;1.00
13673;DHT22;6909;52.202;9.876;2023-07-13T15:23:39;18.00;1.00
13673;DHT22;6909;52.202;9.876;2023-07-13T15:26:12;18.00;1.00
13673;DHT22;6909;52.202;9.876;2023-07-13T15:28:40;18.00;99.90
13673;DHT22;6909;52.202;9.876;2023-07-13T15:31:20;17.80;99.90
13673;DHT22;6909;52.202;9.876;2023-07-13T15:33:48;17.80;1.00
13673;DHT22;6909;52.202;9.876;2023-07-13T15:36:15;17.60;1.00
13673;DHT22;6909;52.202;9.876;2023-07-13T15:38:43;17.40;1.00
13673;DHT22;6909;52.202;9.876;2023-07-13T15:41:16;17.20;1.00
13673;DHT22;6909;52.202;9.876;2023-07-13T15:43:43;17.10;1.00
13673;DHT22;6909;52.202;9.876;2023-07-13T15:46:10;17.10;99.90
13673;DHT22;6909;52.202;9.876;2023-07-13T15:48:37;16.90;1.00
13673;DHT22;6909;52.202;9.876;2023-07-13T15:51:08;16.90;7.60
13673;DHT22;6909;52.202;9.876;2023-07-13T15:53:38;16.90;99.90
13673;DHT22;6909;52.202;9.876;2023-07-13T15:56:17;16.90;1.00
13673;DHT22;6909;52.202;9.876;2023-07-13T15:58:44;16.60;99.90
13673;DHT22;6909;52.202;9.876;2023-07-13T16:01:12;16.60;1.00
13673;DHT22;6909;52.202;9.876;2023-07-13T16:03:40;16.50;99.90
13673;DHT22;6909;52.202;9.876;2023-07-13T16:06:12;16.60;1.00
13673;DHT22;6909;52.202;9.876;2023-07-13T16:08:40;16.50;1.00
13673;DHT22;6909;52.202;9.876;2023-07-13T16:11:15;16.60;1.00
13673;DHT22;6909;52.202;9.876;2023-07-13T16:13:43;16.60;1.00
13673;DHT22;6909;52.202;9.876;2023-07-13T16:16:12;16.70;1.00